Bookmark and Share
Track history (hours):
 

Juergen K

Last reported at 2014-Apr-20 02:33 UTC. Time now 2014-Apr-21 07:41 UTC.
Position N 50°17' W 001°14'.

Length 89 m; draft 5.4 m.

Type: Cargo ship. MMSI: 244329000.

NotesDate/timePositionNaut miles runAvg speedWind from/ knotsBaromVisibWave heightAir tempDewpointWater temp
2014-Apr-20 02:33N 50°17' W 001°14'9 9.5
2014-Apr-20 01:33N 50°20' W 000°59'8 7.3
2014-Apr-20 00:25N 50°22' W 000°47'6 6.2
2014-Apr-19 23:32N 50°24' W 000°39'6 6.4
2014-Apr-19 22:33N 50°26' W 000°29'31 9.2
2014-Apr-19 19:08N 50°35' E 000°18'711.2
2014-Apr-19 18:33N 50°37' E 000°27'1110.8
2014-Apr-19 17:33N 50°42' E 000°42'1010.1
2014-Apr-19 16:33N 50°48' E 000°55'33 8.4
2014-Apr-19 12:34N 51°09' E 001°37'1110.8
2014-Apr-19 11:33N 51°17' E 001°48'1212.1
2014-Apr-19 10:33N 51°28' E 001°58'78 8.4
2014-Apr-19 01:19N 52°03' E 003°50'7 8.1
2014-Apr-19 00:27N 52°01' E 004°00'8 9.2
2014-Apr-18 23:33N 51°56' E 004°11'0 0.1
2014-Apr-18 22:33N 51°56' E 004°11'0 0.0
2014-Apr-18 21:06N 51°56' E 004°11'0 0.0
2014-Apr-18 19:33N 51°56' E 004°11'0 0.0
2014-Apr-18 18:18N 51°56' E 004°11'0 0.0
2014-Apr-18 17:33N 51°56' E 004°11'0 0.0
2014-Apr-18 15:30N 51°56' E 004°11'0 0.0
2014-Apr-18 14:09N 51°56' E 004°11'0 0.0
2014-Apr-18 12:30N 51°56' E 004°11'0 0.0
2014-Apr-18 11:30N 51°56' E 004°11'0 0.0
2014-Apr-18 10:30N 51°56' E 004°11'0 0.0
2014-Apr-18 08:09N 51°56' E 004°11'0 0.0
2014-Apr-18 07:30N 51°56' E 004°11'0 0.0
2014-Apr-18 06:24N 51°56' E 004°11'0 0.0
2014-Apr-18 02:06N 51°56' E 004°11'0 0.0
2014-Apr-18 01:18N 51°56' E 004°11'0 0.0
2014-Apr-18 00:18N 51°56' E 004°11'0 0.0
2014-Apr-17 22:30N 51°56' E 004°11'0 0.0
2014-Apr-17 21:33N 51°56' E 004°11'0 0.0
2014-Apr-17 20:33N 51°56' E 004°11'0 0.0
2014-Apr-17 19:33N 51°56' E 004°11'0 0.0
2014-Apr-17 18:33N 51°56' E 004°11'0 0.0
2014-Apr-17 14:18N 51°56' E 004°11'0 0.0
2014-Apr-17 09:09N 51°56' E 004°11'0 0.0
2014-Apr-17 04:33N 51°56' E 004°11'0 0.0
2014-Apr-17 03:18N 51°56' E 004°11'0 0.0
2014-Apr-17 02:12N 51°56' E 004°11'0 0.0
2014-Apr-17 01:33N 51°56' E 004°11'0 0.0
2014-Apr-17 00:27N 51°56' E 004°11'0 0.0
2014-Apr-16 22:18N 51°56' E 004°11'0 0.0
2014-Apr-16 21:30N 51°56' E 004°11'0 0.0
2014-Apr-16 19:21N 51°56' E 004°11'0 0.0
2014-Apr-16 18:15N 51°56' E 004°11'0 0.0
2014-Apr-16 17:24N 51°56' E 004°11'0 0.0
2014-Apr-16 16:18N 51°56' E 004°11'0 0.0
2014-Apr-16 15:15N 51°56' E 004°11'0 0.0
2014-Apr-16 14:33N 51°56' E 004°11'0 0.0
2014-Apr-16 12:21N 51°56' E 004°11'0 0.0
2014-Apr-16 09:03N 51°56' E 004°11'0 0.0
2014-Apr-16 08:09N 51°56' E 004°11'0 0.0
2014-Apr-16 06:09N 51°56' E 004°11'0 0.0
2014-Apr-16 05:03N 51°56' E 004°11'0 0.0
2014-Apr-16 04:33N 51°56' E 004°11'0 0.0
2014-Apr-16 03:33N 51°56' E 004°11'0 0.0
2014-Apr-16 02:30N 51°56' E 004°11'0 0.0
2014-Apr-16 01:18N 51°56' E 004°11'0 0.0
2014-Apr-15 23:33N 51°56' E 004°11'0 0.0
2014-Apr-15 22:24N 51°56' E 004°11'0 0.0
2014-Apr-15 21:09N 51°56' E 004°11'0 0.0
2014-Apr-15 20:06N 51°56' E 004°11'0 0.0
2014-Apr-15 19:33N 51°56' E 004°11'0 0.0
2014-Apr-15 18:18N 51°56' E 004°11'0 0.0
2014-Apr-15 17:18N 51°56' E 004°11'0 0.0
2014-Apr-15 08:34N 51°56' E 004°11'0 0.0
2014-Apr-14 23:33N 51°56' E 004°11'0 0.0
2014-Apr-14 14:34N 51°56' E 004°11'4 3.5
2014-Apr-14 13:33N 51°59' E 004°07'8 0.5
2014-Apr-13 21:31N 51°53' E 004°17'1 1.1
2014-Apr-13 20:32N 51°53' E 004°18'8 6.9
2014-Apr-13 19:27N 51°58' E 004°09'7 7.2
2014-Apr-13 18:33N 52°00' E 003°59'69 9.8
2014-Apr-13 11:29N 51°31' E 002°18'1010.6
2014-Apr-13 10:30N 51°21' E 002°10'1110.0
2014-Apr-13 09:26N 51°13' E 002°01'9 9.6
2014-Apr-13 08:29N 51°07' E 001°49'162 9.0
2014-Apr-12 14:30N 49°57' W 002°01'27 7.7
2014-Apr-12 11:03N 49°50' W 002°41'15 8.6
2014-Apr-12 09:18N 49°44' W 003°02'  

Dump ship's entire track history

sailing weather and tide predictions

Juergen K — PBKV — position and weather